Date,TemperatureHighF,TemperatureAvgF,TemperatureLowF,DewpointHighF,DewpointAvgF,DewpointLowF,HumidityHigh,HumidityAvg,HumidityLow,PressureMaxIn,PressureMinIn,WindSpeedMaxMPH,WindSpeedAvgMPH,GustSpeedMaxMPH,PrecipitationSumIn
2013-7-1,64.7,58.2,47.0,53.2,49.5,44.5,92,74,56,30.56,30.47,7,1,7,0.12
2013-7-2,72.8,58.2,45.2,52.0,45.4,39.6,94,65,39,30.51,30.40,13,1,13,0.01
2013-7-3,77.0,59.8,47.7,49.1,42.3,32.7,89,56,31,30.40,30.24,8,1,14,0.24
2013-7-4,76.8,64.4,56.7,52.8,42.3,38.2,59,45,29,30.32,30.24,9,2,9,0.01
2013-7-5,76.0,61.7,54.4,54.7,47.0,39.9,81,59,35,30.24,30.17,13,1,13,0.05
2013-7-6,79.3,64.5,54.6,51.5,46.1,39.4,79,52,30,30.31,30.18,18,2,18,0.01
2013-7-7,78.0,64.0,53.5,56.8,46.2,38.3,92,55,28,30.38,30.29,13,1,13,0.32
2013-7-8,80.0,67.2,58.6,46.7,42.1,37.1,59,41,24,30.44,30.34,16,2,16,0.00
2013-7-9,82.0,69.5,59.8,41.5,36.6,28.1,48,32,16,30.53,30.43,10,1,10,0.00
2013-7-10,78.8,65.1,52.9,57.8,45.2,38.0,83,49,30,30.53,30.35,10,1,10,0.09
2013-7-11,84.3,71.4,58.1,50.8,44.2,35.7,63,41,20,30.41,30.22,13,2,13,0.00
2013-7-12,67.8,67.5,65.5,44.1,43.7,42.9,45,42,41,30.31,30.28,3,3,8,0.00
2013-7-13,78.2,63.9,52.9,56.1,49.2,43.8,94,64,33,30.46,30.29,9,2,9,0.31
2013-7-14,67.5,57.5,51.3,56.1,51.9,47.2,96,82,58,30.50,30.39,9,1,9,1.95
2013-7-15,68.3,56.7,51.2,60.0,53.9,50.1,97,91,73,30.47,30.39,6,0,7,0.00
2013-7-16,73.5,59.8,49.9,53.3,48.3,43.1,96,69,37,30.49,30.36,9,1,9,0.00
2013-7-17,78.0,63.7,50.5,55.2,49.0,42.5,81,60,39,30.49,30.42,8,1,8,0.00
2013-7-18,81.3,64.4,54.5,53.5,49.2,44.9,91,60,37,30.48,30.40,12,1,12,0.18
2013-7-19,71.0,61.3,53.7,56.0,51.7,42.0,88,72,50,30.48,30.36,10,2,10,0.01
2013-7-20,80.4,63.0,50.7,56.2,46.3,38.8,88,57,27,30.37,30.27,11,1,11,0.01
2013-7-21,81.7,67.1,51.7,53.8,38.4,20.3,86,39,12,30.28,30.19,16,2,16,0.00
2013-7-22,85.0,70.3,59.0,50.7,29.4,8.7,48,25,7,30.33,30.24,9,2,13,0.00
2013-7-23,83.0,68.8,57.5,52.9,34.3,13.2,81,33,8,30.46,30.30,9,1,9,0.00
2013-7-24,74.5,59.0,49.4,56.7,51.1,45.1,95,76,51,30.46,30.34,9,1,9,0.21
2013-7-25,68.0,56.2,49.7,53.5,48.9,44.7,94,78,46,30.52,30.32,7,0,7,0.16
2013-7-26,74.0,58.2,0.0,53.8,45.9,0.0,90,65,33,30.56,30.44,4,0,4,0.10
2013-7-27,76.7,60.9,51.8,54.5,45.7,36.2,96,61,27,30.44,30.31,12,1,12,0.03
2013-7-28,66.5,54.4,49.7,56.9,52.2,48.9,100,93,68,30.31,30.18,3,0,3,0.05
2013-7-29,69.3,58.3,50.2,51.7,45.7,41.9,87,64,42,30.45,30.21,7,1,11,0.06
2013-7-30,74.0,61.9,51.3,47.3,43.7,39.8,77,53,32,30.54,30.43,13,1,13,0.00
2013-7-31,76.7,63.9,53.4,50.9,45.3,39.9,76,52,33,30.59,30.48,7,0,7,0.00